• location
  • image
Airport

AP V2 EN

 

 

Click here to view short presentation ->

Today

Saturday, 28 February 2015

Weather Forecast

Siauliai 2 °C
   

Aviation Weather Forecast

[source: ADDS]
METAR
EYSA 281650Z 18004KT 7000 OVC020 02/01 Q1016 R32R/29//95 R32L/29//95 =
TAF
TAF EYSA 281700Z 2818/0103 VRB04KT 3000 BR OVC006 TEMPO 2818/2821 1500 DZ TEMPO 2821/0103 1000 DZ OVC003 =
SR / SS: 05:19 / 16:01 UTC (EYSA 2015-02-28)

Who's Online

We have 4 guests online

tic logo en